createdAt,value
2018-06-29T00:00:33.572Z,6.23
2018-06-29T00:03:03.066Z,6.20
2018-06-29T00:05:32.456Z,5.97
2018-06-29T00:08:02.162Z,5.70
2018-06-29T00:10:31.669Z,6.17
2018-06-29T00:13:01.598Z,6.67
2018-06-29T00:15:31.404Z,6.63
2018-06-29T00:18:01.102Z,6.70
2018-06-29T00:20:30.509Z,6.63
2018-06-29T00:23:00.335Z,5.87
2018-06-29T00:25:29.949Z,5.43
2018-06-29T00:27:59.645Z,6.60
2018-06-29T00:30:29.247Z,6.60
2018-06-29T00:32:59.276Z,6.90
2018-06-29T00:35:29.785Z,7.70
2018-06-29T00:37:59.094Z,7.37
2018-06-29T00:40:28.800Z,7.53
2018-06-29T00:42:58.733Z,6.77
2018-06-29T00:45:28.236Z,6.53
2018-06-29T00:47:57.775Z,7.87
2018-06-29T00:50:28.179Z,6.60
2018-06-29T00:52:58.164Z,7.77
2018-06-29T00:55:28.081Z,7.63
2018-06-29T00:57:57.651Z,7.03
2018-06-29T01:00:27.512Z,7.07
2018-06-29T01:02:56.788Z,7.27
2018-06-29T01:05:26.110Z,6.87
2018-06-29T01:07:55.787Z,7.23
2018-06-29T01:10:25.306Z,6.23
2018-06-29T01:12:54.811Z,6.70
2018-06-29T01:15:24.520Z,6.33
2018-06-29T01:17:54.347Z,7.23
2018-06-29T01:20:23.953Z,6.33
2018-06-29T01:22:53.780Z,5.87
2018-06-29T01:25:23.368Z,7.20
2018-06-29T01:27:53.169Z,6.60
2018-06-29T01:30:22.781Z,6.50
2018-06-29T01:32:52.488Z,6.60
2018-06-29T01:35:21.683Z,6.73
2018-06-29T01:37:51.799Z,6.70
2018-06-29T01:40:21.408Z,6.67
2018-06-29T01:42:50.920Z,6.90
2018-06-29T01:45:20.416Z,6.47
2018-06-29T01:47:50.028Z,6.53
2018-06-29T01:50:19.749Z,5.77
2018-06-29T01:52:49.186Z,5.77
2018-06-29T01:55:19.057Z,5.93
2018-06-29T01:57:48.765Z,6.20
2018-06-29T02:00:18.266Z,6.63
2018-06-29T02:02:48.185Z,5.93
2018-06-29T02:05:18.016Z,6.80
2018-06-29T02:07:48.126Z,5.97
2018-06-29T02:10:18.024Z,5.97
2018-06-29T02:12:47.956Z,5.57
2018-06-29T02:15:18.182Z,6.23
2018-06-29T02:17:47.872Z,5.77
2018-06-29T02:20:18.085Z,5.07
2018-06-29T02:22:47.906Z,5.67
2018-06-29T02:25:18.029Z,6.03
2018-06-29T02:27:47.759Z,5.37
2018-06-29T02:30:17.128Z,5.83
2018-06-29T02:32:46.963Z,5.80
2018-06-29T02:35:16.569Z,5.73
2018-06-29T02:37:46.282Z,5.70
2018-06-29T02:40:15.999Z,5.43
2018-06-29T02:42:45.573Z,6.30
2018-06-29T02:45:15.401Z,5.67
2018-06-29T02:47:45.112Z,5.77
2018-06-29T02:50:15.011Z,5.23
2018-06-29T02:52:44.734Z,5.80
2018-06-29T02:55:14.342Z,5.70
2018-06-29T02:57:44.248Z,5.10
2018-06-29T03:00:14.591Z,5.30
2018-06-29T03:02:44.694Z,5.30
2018-06-29T03:05:14.393Z,5.13
2018-06-29T03:07:43.805Z,5.53
2018-06-29T03:10:13.300Z,5.67
2018-06-29T03:12:42.599Z,5.30
2018-06-29T03:15:12.318Z,6.00
2018-06-29T03:17:42.229Z,5.73
2018-06-29T03:20:11.732Z,5.50
2018-06-29T03:22:41.742Z,5.93
2018-06-29T03:25:11.212Z,5.00
2018-06-29T03:27:40.750Z,5.00
2018-06-29T03:30:10.171Z,5.17
2018-06-29T03:32:39.764Z,4.80
2018-06-29T03:35:09.181Z,5.07
2018-06-29T03:37:38.672Z,4.50
2018-06-29T03:40:08.189Z,5.10
2018-06-29T03:42:38.202Z,5.17
2018-06-29T03:45:07.597Z,5.27
2018-06-29T03:47:36.790Z,4.67
2018-06-29T03:50:06.498Z,4.60
2018-06-29T03:52:36.119Z,5.53
2018-06-29T03:55:06.028Z,4.87
2018-06-29T03:57:35.535Z,4.73
2018-06-29T04:00:05.227Z,5.63
2018-06-29T04:02:34.531Z,4.80
2018-06-29T04:05:03.816Z,5.30
2018-06-29T04:07:33.434Z,5.23
2018-06-29T04:10:03.268Z,4.80
2018-06-29T04:12:32.790Z,4.97
2018-06-29T04:15:02.155Z,5.00
2018-06-29T04:17:31.979Z,4.83
2018-06-29T04:20:01.375Z,5.33
2018-06-29T04:22:30.769Z,4.87
2018-06-29T04:25:02.223Z,4.43
2018-06-29T04:27:32.572Z,5.03
2018-06-29T04:30:03.178Z,4.50
2018-06-29T04:32:32.268Z,4.63
2018-06-29T04:35:02.514Z,4.67
2018-06-29T04:37:32.096Z,4.60
2018-06-29T04:40:01.575Z,4.27
2018-06-29T04:42:31.133Z,4.20
2018-06-29T04:45:00.518Z,5.10
2018-06-29T04:47:30.544Z,4.30
2018-06-29T04:49:59.731Z,4.50
2018-06-29T04:52:29.031Z,4.57
2018-06-29T04:54:58.786Z,4.30
2018-06-29T04:57:28.341Z,4.20
2018-06-29T04:59:58.148Z,4.73
2018-06-29T05:02:28.071Z,4.43
2018-06-29T05:04:57.594Z,5.00
2018-06-29T05:07:26.880Z,4.70
2018-06-29T05:09:56.278Z,4.40
2018-06-29T05:12:25.981Z,4.43
2018-06-29T05:14:56.506Z,3.97
2018-06-29T05:17:25.919Z,4.70
2018-06-29T05:19:55.736Z,4.63
2018-06-29T05:22:25.353Z,4.60
2018-06-29T05:24:54.762Z,4.63
2018-06-29T05:27:24.643Z,4.90
2018-06-29T05:29:54.572Z,4.20
2018-06-29T05:32:24.077Z,4.70
2018-06-29T05:34:53.981Z,4.43
2018-06-29T05:37:23.727Z,4.90
2018-06-29T05:39:53.515Z,5.00
2018-06-29T05:42:23.309Z,4.73
2018-06-29T05:44:53.125Z,5.20
2018-06-29T05:47:24.173Z,4.63
2018-06-29T05:49:58.410Z,4.30
2018-06-29T05:52:29.011Z,3.93
2018-06-29T05:54:59.144Z,3.83
2018-06-29T05:57:28.817Z,3.80
2018-06-29T05:59:58.564Z,4.33
2018-06-29T06:02:28.692Z,4.03
2018-06-29T06:04:59.023Z,5.40
2018-06-29T06:07:28.907Z,4.73
2018-06-29T06:09:59.128Z,5.13
2018-06-29T06:12:29.860Z,4.53
2018-06-29T06:14:59.668Z,4.40
2018-06-29T06:17:30.015Z,4.60
2018-06-29T06:20:04.934Z,3.87
2018-06-29T06:22:35.144Z,4.27
2018-06-29T06:25:06.614Z,3.93
2018-06-29T06:27:36.935Z,4.00
2018-06-29T06:30:07.045Z,4.30
2018-06-29T06:32:37.158Z,3.87
2018-06-29T06:35:08.724Z,4.70
2018-06-29T06:37:38.528Z,3.93
2018-06-29T06:40:08.234Z,4.30
2018-06-29T06:42:38.283Z,4.40
2018-06-29T06:45:08.703Z,4.10
2018-06-29T06:47:38.715Z,4.77
2018-06-29T06:50:08.511Z,5.17
2018-06-29T06:52:38.136Z,4.67
2018-06-29T06:55:08.127Z,5.00
2018-06-29T06:57:39.171Z,3.60
2018-06-29T07:00:09.590Z,3.73
2018-06-29T07:02:40.019Z,4.07
2018-06-29T07:05:10.543Z,4.00
2018-06-29T07:07:40.580Z,3.97
2018-06-29T07:10:10.695Z,4.30
2018-06-29T07:12:41.034Z,3.87
2018-06-29T07:15:10.735Z,3.57
2018-06-29T07:17:40.757Z,4.37
2018-06-29T07:20:10.957Z,4.20
2018-06-29T07:22:40.561Z,4.30
2018-06-29T07:25:11.499Z,3.70
2018-06-29T07:27:41.423Z,4.37
2018-06-29T07:30:11.436Z,4.27
2018-06-29T07:32:41.248Z,4.07
2018-06-29T07:35:10.752Z,4.23
2018-06-29T07:37:40.563Z,4.30
2018-06-29T07:40:11.084Z,3.67
2018-06-29T07:42:40.597Z,3.93
2018-06-29T07:45:10.635Z,4.27
2018-06-29T07:47:40.736Z,3.90
2018-06-29T07:50:10.656Z,3.70
2018-06-29T07:52:40.244Z,3.90
2018-06-29T07:55:10.572Z,3.97
2018-06-29T07:57:40.489Z,3.70
2018-06-29T08:00:10.097Z,3.90
2018-06-29T08:02:39.961Z,3.90
2018-06-29T08:05:09.614Z,3.90
2018-06-29T08:07:39.118Z,4.03
2018-06-29T08:10:09.232Z,3.50
2018-06-29T08:12:39.175Z,3.40
2018-06-29T08:15:08.759Z,3.40
2018-06-29T08:17:38.159Z,2.83
2018-06-29T08:20:07.851Z,3.53
2018-06-29T08:22:39.630Z,4.07
2018-06-29T08:25:11.389Z,3.57
2018-06-29T08:27:41.605Z,3.40
2018-06-29T08:30:12.235Z,3.30
2018-06-29T08:32:42.559Z,3.00
2018-06-29T08:35:12.982Z,3.40
2018-06-29T08:37:48.122Z,3.23
2018-06-29T08:40:18.142Z,3.53
2018-06-29T08:42:48.595Z,3.93
2018-06-29T08:45:18.587Z,3.20
2018-06-29T08:47:48.498Z,3.47
2018-06-29T08:50:18.734Z,3.40
2018-06-29T08:52:48.528Z,3.27
2018-06-29T08:55:18.542Z,3.00
2018-06-29T08:57:49.484Z,2.90
2018-06-29T09:00:19.775Z,3.37
2018-06-29T09:02:55.563Z,2.90
2018-06-29T09:05:26.222Z,3.30
2018-06-29T09:07:55.899Z,3.10
2018-06-29T09:10:25.911Z,3.23
2018-06-29T09:12:56.049Z,3.10
2018-06-29T09:15:26.801Z,3.30
2018-06-29T09:17:57.609Z,3.20
2018-06-29T09:20:27.938Z,3.27
2018-06-29T09:22:58.794Z,3.07
2018-06-29T09:25:29.413Z,2.70
2018-06-29T09:27:59.421Z,2.70
2018-06-29T09:30:29.387Z,2.70
2018-06-29T09:32:59.373Z,2.27
2018-06-29T09:35:30.800Z,2.70
2018-06-29T09:38:01.473Z,2.70
2018-06-29T09:40:32.072Z,2.97
2018-06-29T09:43:02.693Z,2.87
2018-06-29T09:45:33.032Z,2.73
2018-06-29T09:48:03.458Z,2.70
2018-06-29T09:50:33.973Z,2.93
2018-06-29T09:53:04.193Z,2.60
2018-06-29T09:55:35.441Z,2.90
2018-06-29T09:58:05.593Z,2.80
2018-06-29T10:00:35.757Z,2.50
2018-06-29T10:03:06.201Z,2.60
2018-06-29T10:05:37.256Z,2.10
2018-06-29T10:08:07.612Z,2.60
2018-06-29T10:10:38.532Z,2.70
2018-06-29T10:13:08.812Z,2.20
2018-06-29T10:15:39.693Z,2.20
2018-06-29T10:18:10.709Z,2.30
2018-06-29T10:20:41.073Z,2.70
2018-06-29T10:23:11.676Z,2.67
2018-06-29T10:25:42.241Z,2.20
2018-06-29T10:28:12.808Z,2.30
2018-06-29T10:30:43.778Z,2.23
2018-06-29T10:33:17.773Z,2.83
2018-06-29T10:35:47.695Z,2.10
2018-06-29T10:38:17.913Z,2.57
2018-06-29T10:40:48.555Z,2.10
2018-06-29T10:43:19.169Z,2.50
2018-06-29T10:45:49.420Z,2.53
2018-06-29T10:48:19.300Z,2.50
2018-06-29T10:50:49.134Z,2.30
2018-06-29T10:53:19.341Z,2.50
2018-06-29T10:55:51.801Z,2.43
2018-06-29T10:58:21.829Z,2.50
2018-06-29T11:00:52.873Z,2.10
2018-06-29T11:03:23.120Z,1.93
2018-06-29T11:05:53.109Z,2.20
2018-06-29T11:08:22.781Z,2.50
2018-06-29T11:10:55.935Z,2.70
2018-06-29T11:13:25.933Z,2.07
2018-06-29T11:15:56.449Z,2.00
2018-06-29T11:18:26.575Z,2.70
2018-06-29T11:20:56.194Z,2.63
2018-06-29T11:23:26.341Z,2.20
2018-06-29T11:25:56.519Z,2.13
2018-06-29T11:28:26.421Z,2.10
2018-06-29T11:30:56.140Z,2.00
2018-06-29T11:33:26.161Z,1.50
2018-06-29T11:35:56.161Z,1.40
2018-06-29T11:38:26.433Z,1.33
2018-06-29T11:40:56.713Z,1.53
2018-06-29T11:43:26.653Z,1.50
2018-06-29T11:45:57.174Z,1.50
2018-06-29T11:48:28.093Z,1.37
2018-06-29T11:50:58.413Z,1.57
2018-06-29T11:53:28.781Z,1.37
2018-06-29T11:55:59.181Z,1.33
2018-06-29T11:58:29.409Z,1.40
2018-06-29T12:01:00.030Z,1.73
2018-06-29T12:03:30.154Z,1.80
2018-06-29T12:06:00.169Z,1.40
2018-06-29T12:08:30.593Z,1.20
2018-06-29T12:11:01.013Z,1.50
2018-06-29T12:13:31.741Z,1.43
2018-06-29T12:16:01.353Z,1.60
2018-06-29T12:18:31.260Z,1.30
2018-06-29T12:21:01.305Z,1.43
2018-06-29T12:23:30.793Z,1.40
2018-06-29T12:26:01.653Z,1.40
2018-06-29T12:28:32.174Z,1.40
2018-06-29T12:31:03.592Z,1.67
2018-06-29T12:33:33.433Z,1.47
2018-06-29T12:36:04.761Z,1.40
2018-06-29T12:38:34.798Z,1.30
2018-06-29T12:41:05.401Z,1.30
2018-06-29T12:43:36.853Z,1.50
2018-06-29T12:46:06.823Z,1.40
2018-06-29T12:48:37.413Z,1.30
2018-06-29T12:51:07.733Z,1.30
2018-06-29T12:53:37.555Z,1.40
2018-06-29T12:56:07.658Z,1.00
2018-06-29T12:58:37.679Z,1.30
2018-06-29T13:01:07.739Z,1.20
2018-06-29T13:03:38.333Z,1.07
2018-06-29T13:06:08.453Z,1.20
2018-06-29T13:08:39.181Z,1.40
2018-06-29T13:11:09.404Z,1.20
2018-06-29T13:13:39.412Z,1.77
2018-06-29T13:16:11.177Z,1.52
2018-06-29T13:18:45.280Z,1.10
2018-06-29T13:21:16.104Z,1.30
2018-06-29T13:23:46.755Z,1.27
2018-06-29T13:26:16.965Z,1.50
2018-06-29T13:28:50.812Z,1.50
2018-06-29T13:31:25.400Z,1.70
2018-06-29T13:33:55.606Z,1.50
2018-06-29T13:36:25.537Z,1.20
2018-06-29T13:38:56.664Z,1.70
2018-06-29T13:41:27.641Z,1.40
2018-06-29T13:43:59.792Z,1.57
2018-06-29T13:46:30.014Z,1.40
2018-06-29T13:49:00.132Z,1.40
2018-06-29T13:51:30.444Z,1.50
2018-06-29T13:54:00.672Z,1.60
2018-06-29T13:56:30.674Z,1.60
2018-06-29T13:59:02.672Z,1.60
2018-06-29T14:01:36.560Z,1.67
2018-06-29T14:04:06.560Z,1.60
2018-06-29T14:06:37.621Z,1.63
2018-06-29T14:09:07.653Z,1.50
2018-06-29T14:11:37.832Z,1.80
2018-06-29T14:14:08.526Z,1.40
2018-06-29T14:16:39.000Z,2.00
2018-06-29T14:19:09.745Z,1.43
2018-06-29T14:21:39.760Z,1.70
2018-06-29T14:24:09.592Z,1.83
2018-06-29T14:26:39.580Z,2.00
2018-06-29T14:29:11.173Z,1.80
2018-06-29T14:31:41.673Z,1.80
2018-06-29T14:34:12.752Z,1.70
2018-06-29T14:36:43.276Z,2.00
2018-06-29T14:39:13.960Z,1.97
2018-06-29T14:41:44.213Z,1.67
2018-06-29T14:44:14.540Z,1.70
2018-06-29T14:46:44.724Z,2.20
2018-06-29T14:49:16.604Z,2.03
2018-06-29T14:51:47.145Z,1.97
2018-06-29T14:54:17.274Z,1.70
2018-06-29T14:56:47.673Z,1.87
2018-06-29T14:59:22.001Z,1.60
2018-06-29T15:01:53.736Z,2.10
2018-06-29T15:04:24.084Z,2.03
2018-06-29T15:06:55.001Z,2.00
2018-06-29T15:09:25.385Z,1.97
2018-06-29T15:11:55.574Z,2.30
2018-06-29T15:14:26.192Z,2.07
2018-06-29T15:16:56.434Z,1.90
2018-06-29T15:19:27.553Z,1.87
2018-06-29T15:21:58.206Z,2.20
2018-06-29T15:24:29.008Z,2.20
2018-06-29T15:26:59.340Z,1.80
2018-06-29T15:29:29.553Z,1.77
2018-06-29T15:32:00.082Z,2.10
2018-06-29T15:53:15.168Z,1.53
2018-06-29T15:55:46.232Z,1.90
2018-06-29T15:58:17.253Z,1.70
2018-06-29T16:00:48.190Z,1.70
2018-06-29T16:03:20.669Z,2.30
2018-06-29T16:05:51.608Z,1.97
2018-06-29T16:08:23.773Z,1.60
2018-06-29T16:11:00.793Z,1.70
2018-06-29T16:13:32.793Z,1.90
2018-06-29T16:16:04.481Z,1.80
2018-06-29T16:21:10.774Z,1.90
2018-06-29T16:23:42.915Z,1.80
2018-06-29T16:26:19.398Z,1.73
2018-06-29T16:28:52.161Z,1.70
2018-06-29T16:31:25.678Z,1.60
2018-06-29T16:33:55.989Z,2.13
2018-06-29T16:36:26.017Z,1.80
2018-06-29T16:39:00.119Z,2.07
2018-06-29T16:41:29.809Z,1.50
2018-06-29T16:43:59.548Z,1.93
2018-06-29T16:46:29.237Z,1.90
2018-06-29T16:48:59.261Z,2.00
2018-06-29T16:51:29.178Z,1.70
2018-06-29T16:53:59.290Z,1.60
2018-06-29T16:56:29.104Z,1.70
2018-06-29T16:58:58.801Z,1.70
2018-06-29T17:01:28.940Z,1.80
2018-06-29T17:03:58.967Z,1.63
2018-06-29T17:06:29.187Z,1.97
2018-06-29T17:08:59.188Z,1.90
2018-06-29T17:11:29.097Z,1.97
2018-06-29T17:13:58.807Z,1.80
2018-06-29T17:16:28.728Z,2.10
2018-06-29T17:18:58.352Z,2.13
2018-06-29T17:21:28.460Z,2.40
2018-06-29T17:23:58.175Z,1.70
2018-06-29T17:26:28.277Z,1.90
2018-06-29T17:28:58.666Z,1.93
2018-06-29T17:31:28.521Z,1.97
2018-06-29T17:33:58.190Z,2.10
2018-06-29T17:36:27.828Z,2.00
2018-06-29T17:38:57.648Z,2.00
2018-06-29T17:41:27.661Z,1.80
2018-06-29T17:43:57.267Z,2.20
2018-06-29T17:46:27.598Z,2.10
2018-06-29T17:48:57.717Z,2.20
2018-06-29T17:51:28.048Z,2.20
2018-06-29T17:53:57.910Z,2.10
2018-06-29T17:56:28.578Z,1.97
2018-06-29T17:58:58.608Z,2.27
2018-06-29T18:01:28.799Z,2.07
2018-06-29T18:03:58.791Z,2.27
2018-06-29T18:06:28.761Z,2.40
2018-06-29T18:08:58.760Z,2.20
2018-06-29T18:11:28.797Z,2.07
2018-06-29T18:13:58.705Z,2.30
2018-06-29T18:16:28.298Z,2.43
2018-06-29T18:18:58.058Z,2.30
2018-06-29T18:21:28.028Z,2.40
2018-06-29T18:23:57.949Z,1.90
2018-06-29T18:26:27.748Z,2.20
2018-06-29T18:28:57.886Z,2.20
2018-06-29T18:31:27.898Z,2.80
2018-06-29T18:33:58.029Z,2.53
2018-06-29T18:36:28.636Z,2.37
2018-06-29T18:38:58.545Z,3.60
2018-06-29T18:41:28.156Z,3.17
2018-06-29T18:43:58.071Z,3.77
2018-06-29T18:46:27.886Z,4.23
2018-06-29T18:48:57.762Z,4.13
2018-06-29T18:51:27.612Z,4.13
2018-06-29T18:53:57.731Z,4.20
2018-06-29T18:56:27.239Z,4.77
2018-06-29T18:58:57.396Z,4.00
2018-06-29T19:01:27.313Z,4.40
2018-06-29T19:03:57.388Z,4.47
2018-06-29T19:06:27.102Z,4.30
2018-06-29T19:08:56.902Z,4.07
2018-06-29T19:11:26.818Z,3.73
2018-06-29T19:13:56.938Z,4.27
2018-06-29T19:16:27.054Z,3.40
2018-06-29T19:18:56.665Z,3.80
2018-06-29T19:21:29.778Z,3.50
2018-06-29T19:23:59.662Z,3.47
2018-06-29T19:26:29.685Z,3.57
2018-06-29T19:29:04.110Z,3.80
2018-06-29T19:31:34.115Z,3.60
2018-06-29T19:34:03.928Z,3.40
2018-06-29T19:36:34.045Z,3.30
2018-06-29T19:39:04.084Z,3.23
2018-06-29T19:41:34.899Z,3.50
2018-06-29T19:44:08.124Z,3.37
2018-06-29T19:46:38.421Z,3.80
2018-06-29T19:49:09.662Z,2.97
2018-06-29T19:51:39.601Z,2.80
2018-06-29T19:54:10.106Z,2.53
2018-06-29T19:56:40.019Z,3.00
2018-06-29T19:59:10.544Z,3.10
2018-06-29T20:01:40.682Z,3.00
2018-06-29T20:04:10.892Z,3.10
2018-06-29T20:06:40.696Z,3.17
2018-06-29T20:09:12.663Z,3.43
2018-06-29T20:11:42.479Z,3.63
2018-06-29T20:14:14.842Z,3.50
2018-06-29T20:16:44.656Z,3.47
2018-06-29T20:19:14.583Z,3.23
2018-06-29T20:21:44.492Z,3.17
2018-06-29T20:24:14.790Z,3.70
2018-06-29T20:26:44.781Z,3.30
2018-06-29T20:29:14.829Z,2.60
2018-06-29T20:31:45.065Z,2.63
2018-06-29T20:34:15.080Z,3.17
2018-06-29T20:36:45.400Z,2.63
2018-06-29T20:39:15.317Z,3.07
2018-06-29T20:41:44.742Z,2.60
2018-06-29T20:44:14.532Z,2.97
2018-06-29T20:46:44.652Z,2.60
2018-06-29T20:49:14.358Z,2.23
2018-06-29T20:51:43.963Z,3.10
2018-06-29T20:54:13.470Z,2.77
2018-06-29T20:56:43.342Z,2.00
2018-06-29T20:59:13.790Z,1.87
2018-06-29T21:01:49.771Z,2.30
2018-06-29T21:04:19.422Z,1.77
2018-06-29T21:06:49.301Z,1.87
2018-06-29T21:09:19.102Z,1.60
2018-06-29T21:11:48.722Z,1.47
2018-06-29T21:14:18.322Z,1.50
2018-06-29T21:16:53.443Z,1.67
2018-06-29T21:19:23.775Z,1.40
2018-06-29T21:21:54.714Z,1.23
2018-06-29T21:24:24.529Z,1.63
2018-06-29T21:26:53.942Z,1.97
2018-06-29T21:29:23.538Z,1.80
2018-06-29T21:31:53.562Z,2.27
2018-06-29T21:34:23.181Z,2.27
2018-06-29T21:36:53.368Z,2.20
2018-06-29T21:39:24.110Z,1.63
2018-06-29T21:41:53.723Z,1.77
2018-06-29T21:44:23.229Z,1.80
2018-06-29T21:46:53.649Z,2.03
2018-06-29T21:49:24.290Z,2.10
2018-06-29T21:51:53.888Z,2.13
2018-06-29T21:54:24.708Z,1.90
2018-06-29T21:56:54.441Z,2.00
2018-06-29T21:59:24.789Z,1.87
2018-06-29T22:01:54.673Z,2.13
2018-06-29T22:04:24.381Z,1.87
2018-06-29T22:06:55.014Z,2.10
2018-06-29T22:09:24.521Z,1.70
2018-06-29T22:11:54.222Z,1.57
2018-06-29T22:14:24.137Z,1.93
2018-06-29T22:16:53.789Z,1.60
2018-06-29T22:19:23.870Z,1.47
2018-06-29T22:21:53.702Z,1.80
2018-06-29T22:24:23.402Z,1.40
2018-06-29T22:26:52.997Z,1.53
2018-06-29T22:29:24.031Z,1.67
2018-06-29T22:31:53.742Z,1.23
2018-06-29T22:34:23.142Z,1.73
2018-06-29T22:36:52.650Z,1.50
2018-06-29T22:39:21.952Z,1.60
2018-06-29T22:41:51.560Z,1.73
2018-06-29T22:44:21.387Z,1.07
2018-06-29T22:46:51.280Z,1.57
2018-06-29T22:49:21.102Z,1.73
2018-06-29T22:51:50.600Z,1.67
2018-06-29T22:54:20.539Z,1.10
2018-06-29T22:56:50.116Z,1.43
2018-06-29T22:59:19.530Z,1.50
2018-06-29T23:01:49.133Z,1.13
2018-06-29T23:04:18.729Z,1.10
2018-06-29T23:06:48.133Z,1.50
2018-06-29T23:09:17.737Z,1.20
2018-06-29T23:11:47.143Z,1.20
2018-06-29T23:14:17.372Z,1.20
2018-06-29T23:16:47.076Z,1.30
2018-06-29T23:19:16.792Z,1.50
2018-06-29T23:21:46.718Z,1.30
2018-06-29T23:24:16.733Z,1.00
2018-06-29T23:26:47.059Z,1.17
2018-06-29T23:29:17.989Z,1.40
2018-06-29T23:31:48.207Z,0.80
2018-06-29T23:34:17.917Z,1.00
2018-06-29T23:36:47.930Z,1.00
2018-06-29T23:39:18.246Z,1.00
2018-06-29T23:41:48.270Z,1.00
2018-06-29T23:44:17.769Z,0.90
2018-06-29T23:46:47.576Z,1.00
2018-06-29T23:49:17.706Z,0.77
2018-06-29T23:51:47.824Z,0.70
2018-06-29T23:54:17.537Z,0.90
2018-06-29T23:56:47.768Z,1.10
2018-06-29T23:59:17.462Z,0.80
